Everett, WA (98204)

2:08 PM PDT on September 01, 2014 (GMT -0700)
Harbour Pointe | Change Station
CLOSE
Current Station
Personal Weather Station
Location: Mukilteo, WA
Elevation: 522 ft
Nearby Weather Stations

Elev 522 ft 47.89 °N, 122.29 °W | Updated 8 seconds ago

Partly Cloudy
Partly Cloudy
71.6 °F
Feels Like 77 °F
N
2.7
Wind Variable Wind from SE
Gusts 7.4 mph

Today
High -- | Low -- °F
--% Chance of Precip.
Yesterday
High -- | Low -- °F
Precip. -- in
6:27 AM 7:49 PM
Waxing Crescent, 44% visible
Pressure 30.06 in
Visibility 10.0 miles
Clouds Few 2800 ft
Heat Index 77 °F
Dew Point 53 °F
Humidity 52%
Rainfall 0.00 in
Snow Depth Not available.
UV 7 out of 12
Pollen 3.10 out of 12
PM2.5 Good
Flu Activity Not available.
METAR KPAE 012053Z 24009KT 10SM FEW028 20/11 A3007 RMK AO2 SLP180 T02000111 56007

More Conditions Fewer Conditions

Pressure 30.06 in
Visibility 10.0 miles
Clouds Few 2800 ft
Heat Index 77 °F
Dew Point 53 °F
Humidity 52%
Rainfall 0.00 in
Snow Depth Not available.
UV 7 out of 12
Pollen 3.10 out of 12
PM2.5 Good
Flu Activity Not available.
METAR KPAE 012053Z 24009KT 10SM FEW028 20/11 A3007 RMK AO2 SLP180 T02000111 56007

More Conditions Fewer Conditions

10-Day Weather Forecast

Almanac

Astronomy

Sep. 01, 2014 Rise Set
Actual Time 6:27 AM PDT 7:49 PM PDT
Civil Twilight 5:55 AM PDT 8:21 PM PDT
Nautical Twilight 5:16 AM PDT 9:00 PM PDT
Astronomical Twilight 4:34 AM PDT 9:42 PM PDT
Moon 1:48 PM PDT 11:24 PM PDT
Length of Visible Light 14h 26m
Length of Day
13h 22m
Tomorrow will be 3m 21s shorter.
Waxing Crescent, 44% of the Moon is Illuminated
Today
Waxing Crescent
Sep 2
First Quarter
Sep 8
Full
Sep 15
Last Quarter
Sep 24
New

Today's Extremes

State Highs State Lows

Community

WunderPhotos

Upload Photos

1,749,407 photos uploaded!

WunderBlogs® & News

Nearby

Air Quality

  Air Quality AQ Index Pollutant
Yesterday Good
PM2.5
Current Good
PM2.5
Monday Good
OZONE
Monday Good
PM2.5
Tuesday Good
OZONE
Tuesday Good
PM2.5
Wednesday Good
OZONE
Wednesday Good
PM2.5

Snow Depth

Station Depth Elevation
Dungeness 0 in 4100 ft
Meadows Pass 0 in 3500 ft
Stampede Pass 2 in 3860 ft
Sasse Ridge 0 in 4200 ft
Thunder Basin 2 in 4200 ft

Earthquake Activity

City Distance Mag. Time & Date
No recent earthquake activity has been reported nearby.
Minimum magnitude displayed is 2.5.

Coastal Water Temperatures

Place Temperature
Port Townsend, WA 54.0 °F
Seattle, WA 55.9 °F
Friday Harbor, WA 53.1 °F
Tacoma, WA 55.0 °F

Nearby Weather Stations